Disclaimer

Please do not use the information listed here in-flight or in-navigation, as they are not provided to us by the airports but are provided by volunteers, so they might be outdated.

Search


Regions


Airport information page

Radio informations:
TAIPEI TWR - 118.7 MHz
Ground (GND) - 121.7 MHz
Automatic Terminal Information Service (ATIS) - 127.6 MHz
TAIPEI APP - 119.6 MHz

Latitude: N/A
Longitude: N/A
Elevation: N/A
Operating hours: N/A
Operating agency: N/A
Timezone: N/A
Fuel: N/A

Recent METARs:
RCTP 180530Z 29007KT 250V330 9999 FEW015 BKN080 26/23 Q1014 NOSIG RMK A2995
RCTP 180600Z 31008KT 9999 FEW010 BKN015 BKN080 25/23 Q1013 NOSIG RMK A2994
RCTP 180630Z 30006KT 9999 FEW010 BKN015 BKN080 25/23 Q1013 NOSIG RMK A2994

Airport on the map: